Time,TemperatureF,DewpointF,PressureIn,WindDirection,WindDirectionDegrees,WindSpeedMPH,WindSpeedGustMPH,Humidity,HourlyPrecipIn,Conditions,Clouds,dailyrainin,SoftwareType,DateUTC
2013-08-22 00:00:00,64.1,49.4,29.95,NNE,13,0.0,1.0,59,0.00,,,0.00,VWS V14.01,2013-08-22 05:00:00,
2013-08-22 00:01:00,59.0,49.5,29.96,WNW,294,3.0,3.0,71,0.00,,,0.00,VWS V14.01,2013-08-22 05:01:00,
2013-08-22 00:06:00,58.5,49.0,29.96,WNW,285,1.0,4.0,71,0.00,,,0.00,VWS V14.01,2013-08-22 05:06:00,
2013-08-22 00:11:00,58.3,48.8,29.96,West,271,2.0,4.0,71,0.00,,,0.00,VWS V14.01,2013-08-22 05:11:00,
2013-08-22 00:15:00,62.8,49.9,29.96,WNW,303,2.0,3.0,63,0.00,,,0.00,VWS V14.01,2013-08-22 05:15:00,
2013-08-22 00:16:00,58.0,48.9,29.96,West,278,2.0,3.0,72,0.00,,,0.00,VWS V14.01,2013-08-22 05:16:00,
2013-08-22 00:21:00,57.7,48.6,29.96,WSW,237,1.0,3.0,72,0.00,,,0.00,VWS V14.01,2013-08-22 05:21:00,
2013-08-22 00:26:00,57.5,48.8,29.96,WSW,244,2.0,3.0,73,0.00,,,0.00,VWS V14.01,2013-08-22 05:26:00,
2013-08-22 00:30:00,61.3,50.1,29.96,WNW,303,1.0,3.0,67,0.00,,,0.00,VWS V14.01,2013-08-22 05:30:00,
2013-08-22 00:31:00,57.6,48.5,29.96,WSW,253,2.0,2.0,72,0.00,,,0.00,VWS V14.01,2013-08-22 05:31:00,
2013-08-22 00:36:00,57.9,48.5,29.96,WSW,253,2.0,3.0,71,0.00,,,0.00,VWS V14.01,2013-08-22 05:36:00,
2013-08-22 00:41:00,57.9,48.5,29.97,WSW,245,1.0,3.0,71,0.00,,,0.00,VWS V14.01,2013-08-22 05:41:00,
2013-08-22 00:45:00,60.4,49.3,29.96,West,263,2.0,4.0,67,0.00,,,0.00,VWS V14.01,2013-08-22 05:45:00,
2013-08-22 00:46:00,57.7,48.6,29.97,WSW,245,2.0,2.0,72,0.00,,,0.00,VWS V14.01,2013-08-22 05:46:00,
2013-08-22 00:51:00,57.6,48.5,29.97,WSW,247,1.0,3.0,72,0.00,,,0.00,VWS V14.01,2013-08-22 05:51:00,
2013-08-22 00:56:00,57.2,48.5,29.97,West,279,1.0,3.0,73,0.00,,,0.00,VWS V14.01,2013-08-22 05:56:00,
2013-08-22 01:00:00,59.1,49.2,29.96,NW,306,1.0,4.0,70,0.00,,,0.00,VWS V14.01,2013-08-22 06:00:00,
2013-08-22 01:01:00,56.8,48.5,29.97,West,274,1.0,3.0,74,0.00,,,0.00,VWS V14.01,2013-08-22 06:01:00,
2013-08-22 01:06:00,56.4,48.5,29.97,West,274,2.0,3.0,75,0.00,,,0.00,VWS V14.01,2013-08-22 06:06:00,
2013-08-22 01:11:00,56.1,48.2,29.97,West,272,1.0,3.0,75,0.00,,,0.00,VWS V14.01,2013-08-22 06:11:00,
2013-08-22 01:15:00,58.1,49.0,29.96,West,261,1.0,4.0,72,0.00,,,0.00,VWS V14.01,2013-08-22 06:15:00,
2013-08-22 01:16:00,56.1,48.2,29.97,West,272,1.0,2.0,75,0.00,,,0.00,VWS V14.01,2013-08-22 06:16:00,
2013-08-22 01:21:00,56.0,48.1,29.97,West,272,2.0,2.0,75,0.00,,,0.00,VWS V14.01,2013-08-22 06:21:00,
2013-08-22 01:26:00,56.0,48.1,29.97,West,272,1.0,3.0,75,0.00,,,0.00,VWS V14.01,2013-08-22 06:26:00,
2013-08-22 01:30:00,57.6,48.5,29.96,WSW,253,2.0,3.0,72,0.00,,,0.00,VWS V14.01,2013-08-22 06:30:00,
2013-08-22 01:31:00,55.8,48.2,29.97,West,272,2.0,2.0,76,0.00,,,0.00,VWS V14.01,2013-08-22 06:31:00,
2013-08-22 01:36:00,55.8,47.9,29.97,West,272,1.0,2.0,75,0.00,,,0.00,VWS V14.01,2013-08-22 06:36:00,
2013-08-22 01:41:00,56.1,47.8,29.98,West,272,0.0,2.0,74,0.00,,,0.00,VWS V14.01,2013-08-22 06:41:00,
2013-08-22 01:45:00,57.7,48.6,29.97,WSW,245,2.0,3.0,72,0.00,,,0.00,VWS V14.01,2013-08-22 06:45:00,
2013-08-22 01:46:00,56.2,47.6,29.98,West,272,0.0,2.0,73,0.00,,,0.00,VWS V14.01,2013-08-22 06:46:00,
2013-08-22 01:51:00,56.4,47.4,29.98,West,272,0.0,3.0,72,0.00,,,0.00,VWS V14.01,2013-08-22 06:51:00,
2013-08-22 01:56:00,56.5,47.5,29.98,West,272,2.0,3.0,72,0.00,,,0.00,VWS V14.01,2013-08-22 06:56:00,
2013-08-22 02:00:00,56.9,48.6,29.97,West,274,2.0,3.0,74,0.00,,,0.00,VWS V14.01,2013-08-22 07:00:00,
2013-08-22 02:01:00,56.7,46.9,29.98,West,272,0.0,0.0,70,0.00,,,0.00,VWS V14.01,2013-08-22 07:01:00,
2013-08-22 02:06:00,56.9,47.1,29.98,West,272,0.0,1.0,70,0.00,,,0.00,VWS V14.01,2013-08-22 07:06:00,
2013-08-22 02:11:00,57.0,46.8,29.98,West,272,1.0,1.0,69,0.00,,,0.00,VWS V14.01,2013-08-22 07:11:00,
2013-08-22 02:15:00,56.1,48.2,29.97,West,272,1.0,3.0,75,0.00,,,0.00,VWS V14.01,2013-08-22 07:15:00,
2013-08-22 02:16:00,56.9,46.7,29.98,West,272,2.0,2.0,69,0.00,,,0.00,VWS V14.01,2013-08-22 07:16:00,
2013-08-22 02:21:00,56.7,46.9,29.98,West,272,1.0,3.0,70,0.00,,,0.00,VWS V14.01,2013-08-22 07:21:00,
2013-08-22 02:26:00,56.3,47.3,29.98,West,272,2.0,3.0,72,0.00,,,0.00,VWS V14.01,2013-08-22 07:26:00,
2013-08-22 02:30:00,55.9,48.3,29.97,West,272,1.0,3.0,76,0.00,,,0.00,VWS V14.01,2013-08-22 07:30:00,
2013-08-22 02:31:00,55.6,47.3,29.98,WNW,290,1.0,1.0,74,0.00,,,0.00,VWS V14.01,2013-08-22 07:31:00,
2013-08-22 02:36:00,54.9,47.0,29.99,WNW,290,1.0,3.0,75,0.00,,,0.00,VWS V14.01,2013-08-22 07:36:00,
2013-08-22 02:41:00,54.4,46.9,29.99,West,271,2.0,3.0,76,0.00,,,0.00,VWS V14.01,2013-08-22 07:41:00,
2013-08-22 02:45:00,56.2,47.6,29.98,West,272,0.0,2.0,73,0.00,,,0.00,VWS V14.01,2013-08-22 07:45:00,
2013-08-22 02:46:00,54.2,47.0,29.99,West,271,2.0,2.0,77,0.00,,,0.00,VWS V14.01,2013-08-22 07:46:00,
2013-08-22 02:51:00,54.3,47.2,29.99,South,177,4.0,4.0,77,0.00,,,0.00,VWS V14.01,2013-08-22 07:51:00,
2013-08-22 02:56:00,54.6,47.4,29.99,SSE,163,3.0,5.0,77,0.00,,,0.00,VWS V14.01,2013-08-22 07:56:00,
2013-08-22 03:00:00,56.7,47.3,29.98,West,272,0.0,3.0,71,0.00,,,0.00,VWS V14.01,2013-08-22 08:00:00,
2013-08-22 03:01:00,54.6,47.4,29.99,SSE,163,3.0,3.0,77,0.00,,,0.00,VWS V14.01,2013-08-22 08:01:00,
2013-08-22 03:06:00,54.8,47.3,29.99,SSE,166,3.0,5.0,76,0.00,,,0.00,VWS V14.01,2013-08-22 08:06:00,
2013-08-22 03:11:00,55.0,47.5,30.00,SSE,166,3.0,6.0,76,0.00,,,0.00,VWS V14.01,2013-08-22 08:11:00,
2013-08-22 03:15:00,57.0,46.8,29.98,West,272,0.0,1.0,69,0.00,,,0.00,VWS V14.01,2013-08-22 08:15:00,
2013-08-22 03:16:00,55.0,47.5,30.00,South,172,5.0,5.0,76,0.00,,,0.00,VWS V14.01,2013-08-22 08:16:00,
2013-08-22 03:21:00,55.1,47.6,30.00,SSE,155,3.0,5.0,76,0.00,,,0.00,VWS V14.01,2013-08-22 08:21:00,
2013-08-22 03:26:00,55.2,47.3,30.00,SE,138,2.0,5.0,75,0.00,,,0.00,VWS V14.01,2013-08-22 08:26:00,
2013-08-22 03:30:00,55.7,47.1,29.98,WNW,290,1.0,3.0,73,0.00,,,0.00,VWS V14.01,2013-08-22 08:30:00,
2013-08-22 03:31:00,55.3,47.4,30.00,SSE,147,2.0,3.0,75,0.00,,,0.00,VWS V14.01,2013-08-22 08:31:00,
2013-08-22 03:36:00,55.4,47.5,30.00,SSE,160,3.0,5.0,75,0.00,,,0.00,VWS V14.01,2013-08-22 08:36:00,
2013-08-22 03:41:00,55.5,47.6,30.00,SE,144,3.0,5.0,75,0.00,,,0.00,VWS V14.01,2013-08-22 08:41:00,
2013-08-22 03:45:00,54.2,47.0,29.99,West,271,1.0,3.0,77,0.00,,,0.00,VWS V14.01,2013-08-22 08:45:00,
2013-08-22 03:46:00,55.5,48.0,30.00,SE,146,1.0,3.0,76,0.00,,,0.00,VWS V14.01,2013-08-22 08:46:00,
2013-08-22 03:51:00,55.5,47.6,30.01,SSE,163,0.0,3.0,75,0.00,,,0.00,VWS V14.01,2013-08-22 08:51:00,
2013-08-22 03:56:00,55.4,47.5,30.01,SSE,163,1.0,3.0,75,0.00,,,0.00,VWS V14.01,2013-08-22 08:56:00,
2013-08-22 04:00:00,54.6,47.4,29.99,SSE,163,2.0,5.0,77,0.00,,,0.00,VWS V14.01,2013-08-22 09:00:00,
2013-08-22 04:01:00,55.4,47.9,30.01,SSE,163,0.0,0.0,76,0.00,,,0.00,VWS V14.01,2013-08-22 09:01:00,
2013-08-22 04:06:00,55.2,48.0,30.01,SSE,163,0.0,1.0,77,0.00,,,0.00,VWS V14.01,2013-08-22 09:06:00,
2013-08-22 04:11:00,54.7,47.9,30.01,SSE,163,0.0,1.0,78,0.00,,,0.00,VWS V14.01,2013-08-22 09:11:00,
2013-08-22 04:15:00,55.1,47.6,30.00,SSE,167,5.0,6.0,76,0.00,,,0.00,VWS V14.01,2013-08-22 09:15:00,
2013-08-22 04:16:00,54.2,47.7,30.01,SSE,163,0.0,0.0,79,0.00,,,0.00,VWS V14.01,2013-08-22 09:16:00,
2013-08-22 04:21:00,53.8,47.7,30.01,SSE,163,0.0,0.0,80,0.00,,,0.00,VWS V14.01,2013-08-22 09:21:00,
2013-08-22 04:26:00,53.5,47.4,30.01,SSE,163,0.0,0.0,80,0.00,,,0.00,VWS V14.01,2013-08-22 09:26:00,
2013-08-22 04:30:00,55.3,47.4,30.00,SE,144,3.0,5.0,75,0.00,,,0.00,VWS V14.01,2013-08-22 09:30:00,
2013-08-22 04:31:00,53.5,47.7,30.01,SSE,163,2.0,2.0,81,0.00,,,0.00,VWS V14.01,2013-08-22 09:31:00,
2013-08-22 04:36:00,54.0,48.2,30.01,South,177,2.0,3.0,81,0.00,,,0.00,VWS V14.01,2013-08-22 09:36:00,
2013-08-22 04:41:00,54.4,48.6,30.01,South,177,1.0,3.0,81,0.00,,,0.00,VWS V14.01,2013-08-22 09:41:00,
2013-08-22 04:45:00,55.5,48.0,30.00,SE,140,2.0,5.0,76,0.00,,,0.00,VWS V14.01,2013-08-22 09:45:00,
2013-08-22 04:46:00,54.7,48.6,30.01,SSE,167,2.0,3.0,80,0.00,,,0.00,VWS V14.01,2013-08-22 09:46:00,
2013-08-22 04:51:00,55.0,48.5,30.01,SSE,159,2.0,3.0,79,0.00,,,0.00,VWS V14.01,2013-08-22 09:51:00,
2013-08-22 04:56:00,55.3,48.8,30.01,SSE,159,2.0,3.0,79,0.00,,,0.00,VWS V14.01,2013-08-22 09:56:00,
2013-08-22 05:00:00,55.4,47.9,30.01,SSE,163,0.0,3.0,76,0.00,,,0.00,VWS V14.01,2013-08-22 10:00:00,
2013-08-22 05:01:00,55.6,48.8,30.01,SSE,157,2.0,2.0,78,0.00,,,0.00,VWS V14.01,2013-08-22 10:01:00,
2013-08-22 05:06:00,55.7,48.8,30.01,SSE,156,1.0,3.0,78,0.00,,,0.00,VWS V14.01,2013-08-22 10:06:00,
2013-08-22 05:11:00,55.7,49.2,30.01,SSE,156,0.0,3.0,79,0.00,,,0.00,VWS V14.01,2013-08-22 10:11:00,
2013-08-22 05:15:00,54.2,47.7,30.01,SSE,163,0.0,1.0,79,0.00,,,0.00,VWS V14.01,2013-08-22 10:15:00,
2013-08-22 05:16:00,55.5,49.0,30.01,SSE,156,1.0,2.0,79,0.00,,,0.00,VWS V14.01,2013-08-22 10:16:00,
2013-08-22 05:21:00,55.4,48.6,30.01,SSE,156,3.0,3.0,78,0.00,,,0.00,VWS V14.01,2013-08-22 10:21:00,
2013-08-22 05:26:00,55.5,48.3,30.01,SSE,156,1.0,3.0,77,0.00,,,0.00,VWS V14.01,2013-08-22 10:26:00,
2013-08-22 05:30:00,53.5,47.7,30.01,SSE,163,1.0,2.0,81,0.00,,,0.00,VWS V14.01,2013-08-22 10:30:00,
2013-08-22 05:31:00,55.7,48.2,30.01,SSE,156,1.0,2.0,76,0.00,,,0.00,VWS V14.01,2013-08-22 10:31:00,
2013-08-22 05:36:00,55.8,48.2,30.01,SSE,156,1.0,2.0,76,0.00,,,0.00,VWS V14.01,2013-08-22 10:36:00,
2013-08-22 05:41:00,55.8,48.2,30.01,SSE,156,0.0,2.0,76,0.00,,,0.00,VWS V14.01,2013-08-22 10:41:00,
2013-08-22 05:45:00,54.7,48.6,30.01,South,177,3.0,3.0,80,0.00,,,0.00,VWS V14.01,2013-08-22 10:45:00,
2013-08-22 05:46:00,55.7,48.2,30.01,SSE,156,1.0,1.0,76,0.00,,,0.00,VWS V14.01,2013-08-22 10:46:00,
2013-08-22 06:00:00,55.5,48.7,30.01,SSE,157,2.0,3.0,78,0.00,,,0.00,VWS V14.01,2013-08-22 11:00:00,
2013-08-22 06:15:00,55.5,49.0,30.01,SSE,156,1.0,3.0,79,0.00,,,0.00,VWS V14.01,2013-08-22 11:15:00,
2013-08-22 06:30:00,55.7,48.2,30.01,SSE,156,1.0,3.0,76,0.00,,,0.00,VWS V14.01,2013-08-22 11:30:00,
2013-08-22 06:45:00,55.7,48.2,30.01,SSE,156,0.0,2.0,76,0.00,,,0.00,VWS V14.01,2013-08-22 11:45:00,
2013-08-22 07:00:00,55.1,47.6,30.02,SSE,156,1.0,2.0,76,0.00,,,0.00,VWS V14.01,2013-08-22 12:00:00,
2013-08-22 07:15:00,53.8,48.3,30.02,SSE,156,1.0,2.0,82,0.00,,,0.00,VWS V14.01,2013-08-22 12:15:00,
2013-08-22 07:27:00,55.5,47.2,30.03,SE,139,3.0,5.0,74,0.00,,,0.00,VWS V14.01,2013-08-22 12:27:00,
2013-08-22 07:30:00,53.1,48.0,30.02,SSE,156,1.0,2.0,83,0.00,,,0.00,VWS V14.01,2013-08-22 12:30:00,
2013-08-22 07:32:00,55.8,47.5,30.02,SE,144,1.0,2.0,74,0.00,,,0.00,VWS V14.01,2013-08-22 12:32:00,
2013-08-22 07:37:00,56.1,47.5,30.03,SE,142,0.0,3.0,73,0.00,,,0.00,VWS V14.01,2013-08-22 12:37:00,
2013-08-22 07:42:00,56.5,47.8,30.02,SE,128,3.0,4.0,73,0.00,,,0.00,VWS V14.01,2013-08-22 12:42:00,
2013-08-22 07:45:00,54.0,47.9,30.02,SSE,156,0.0,2.0,80,0.00,,,0.00,VWS V14.01,2013-08-22 12:45:00,
2013-08-22 07:47:00,56.9,47.9,30.03,SE,135,2.0,3.0,72,0.00,,,0.00,VWS V14.01,2013-08-22 12:47:00,
2013-08-22 07:52:00,57.4,48.0,30.03,SSE,153,1.0,3.0,71,0.00,,,0.00,VWS V14.01,2013-08-22 12:52:00,
2013-08-22 07:57:00,57.9,48.1,30.03,SE,137,3.0,3.0,70,0.00,,,0.00,VWS V14.01,2013-08-22 12:57:00,
2013-08-22 08:00:00,58.3,48.1,30.03,SE,130,2.0,2.0,69,0.00,,,0.00,VWS V14.01,2013-08-22 13:00:00,
2013-08-22 08:05:00,58.8,48.2,30.03,SE,145,2.0,3.0,68,0.00,,,0.00,VWS V14.01,2013-08-22 13:05:00,
2013-08-22 08:10:00,59.5,48.4,30.03,SE,139,3.0,4.0,67,0.00,,,0.00,VWS V14.01,2013-08-22 13:10:00,
2013-08-22 08:15:00,60.1,49.0,30.03,SE,128,1.0,1.0,67,0.00,,,0.00,VWS V14.01,2013-08-22 13:15:00,
2013-08-22 08:20:00,60.7,49.2,30.03,SE,142,2.0,3.0,66,0.00,,,0.00,VWS V14.01,2013-08-22 13:20:00,
2013-08-22 08:25:00,61.2,49.2,30.03,SE,132,4.0,5.0,65,0.00,,,0.00,VWS V14.01,2013-08-22 13:25:00,
2013-08-22 08:30:00,61.8,49.4,30.03,SE,128,1.0,1.0,64,0.00,,,0.00,VWS V14.01,2013-08-22 13:30:00,
2013-08-22 08:35:00,62.4,50.0,30.03,SSE,153,2.0,5.0,64,0.00,,,0.00,VWS V14.01,2013-08-22 13:35:00,
2013-08-22 08:40:00,63.0,50.1,30.03,SSE,149,3.0,7.0,63,0.00,,,0.00,VWS V14.01,2013-08-22 13:40:00,
2013-08-22 08:45:00,63.5,50.1,30.03,SSE,152,5.0,5.0,62,0.00,,,0.00,VWS V14.01,2013-08-22 13:45:00,
2013-08-22 08:50:00,64.1,50.3,30.03,SE,145,5.0,7.0,61,0.00,,,0.00,VWS V14.01,2013-08-22 13:50:00,
2013-08-22 08:55:00,64.8,50.9,30.03,SSE,157,3.0,7.0,61,0.00,,,0.00,VWS V14.01,2013-08-22 13:55:00,
2013-08-22 09:00:00,65.3,50.5,30.03,SE,134,7.0,8.0,59,0.00,,,0.00,VWS V14.01,2013-08-22 14:00:00,
2013-08-22 09:05:00,65.8,51.0,30.03,SE,134,4.0,8.0,59,0.00,,,0.00,VWS V14.01,2013-08-22 14:05:00,
2013-08-22 09:10:00,66.3,51.0,30.03,ESE,119,3.0,9.0,58,0.00,,,0.00,VWS V14.01,2013-08-22 14:10:00,
2013-08-22 09:15:00,66.7,50.9,30.03,SSE,167,6.0,9.0,57,0.00,,,0.00,VWS V14.01,2013-08-22 14:15:00,
2013-08-22 09:20:00,66.9,51.5,30.04,SE,140,4.0,8.0,58,0.00,,,0.00,VWS V14.01,2013-08-22 14:20:00,
2013-08-22 09:25:00,67.2,50.8,30.03,SSE,158,5.0,9.0,56,0.00,,,0.00,VWS V14.01,2013-08-22 14:25:00,
2013-08-22 09:30:00,67.6,51.7,30.03,SE,138,4.0,9.0,57,0.00,,,0.00,VWS V14.01,2013-08-22 14:30:00,
2013-08-22 09:35:00,67.9,50.5,30.03,SSE,149,5.0,8.0,54,0.00,,,0.00,VWS V14.01,2013-08-22 14:35:00,
2013-08-22 09:40:00,68.2,50.8,30.03,SSE,157,7.0,8.0,54,0.00,,,0.00,VWS V14.01,2013-08-22 14:40:00,
2013-08-22 09:45:00,68.4,50.0,30.03,SE,142,3.0,9.0,52,0.00,,,0.00,VWS V14.01,2013-08-22 14:45:00,
2013-08-22 09:50:00,68.6,50.1,30.03,SE,144,3.0,8.0,52,0.00,,,0.00,VWS V14.01,2013-08-22 14:50:00,
2013-08-22 09:55:00,68.8,50.8,30.03,South,184,7.0,8.0,53,0.00,,,0.00,VWS V14.01,2013-08-22 14:55:00,
2013-08-22 10:00:00,69.5,51.0,30.03,ESE,115,5.0,8.0,52,0.00,,,0.00,VWS V14.01,2013-08-22 15:00:00,
2013-08-22 10:05:00,70.4,49.6,30.03,SSE,151,5.0,8.0,48,0.00,,,0.00,VWS V14.01,2013-08-22 15:05:00,
2013-08-22 10:10:00,71.0,49.0,30.03,SSE,147,4.0,9.0,46,0.00,,,0.00,VWS V14.01,2013-08-22 15:10:00,
2013-08-22 10:15:00,71.2,46.8,30.03,SE,144,9.0,11.0,42,0.00,,,0.00,VWS V14.01,2013-08-22 15:15:00,
2013-08-22 10:20:00,71.5,46.4,30.03,SE,134,3.0,10.0,41,0.00,,,0.00,VWS V14.01,2013-08-22 15:20:00,
2013-08-22 10:25:00,71.7,46.6,30.03,SE,124,9.0,10.0,41,0.00,,,0.00,VWS V14.01,2013-08-22 15:25:00,
2013-08-22 10:30:00,72.0,45.5,30.03,SE,140,3.0,10.0,39,0.00,,,0.00,VWS V14.01,2013-08-22 15:30:00,
2013-08-22 10:35:00,72.0,44.1,30.03,East,98,5.0,11.0,37,0.00,,,0.00,VWS V14.01,2013-08-22 15:35:00,
2013-08-22 10:40:00,72.4,47.2,30.03,East,91,6.0,11.0,41,0.00,,,0.00,VWS V14.01,2013-08-22 15:40:00,
2013-08-22 10:45:00,72.9,46.3,30.03,SSE,147,7.0,11.0,39,0.00,,,0.00,VWS V14.01,2013-08-22 15:45:00,
2013-08-22 10:50:00,73.1,47.2,30.03,East,97,4.0,9.0,40,0.00,,,0.00,VWS V14.01,2013-08-22 15:50:00,
2013-08-22 10:55:00,73.3,46.7,30.03,ESE,102,1.0,9.0,39,0.00,,,0.00,VWS V14.01,2013-08-22 15:55:00,
2013-08-22 11:00:00,73.7,45.6,30.03,ESE,111,2.0,9.0,37,0.00,,,0.00,VWS V14.01,2013-08-22 16:00:00,
2013-08-22 11:05:00,73.8,47.1,30.03,SE,134,4.0,8.0,39,0.00,,,0.00,VWS V14.01,2013-08-22 16:05:00,
2013-08-22 11:10:00,73.9,45.1,30.03,East,90,4.0,9.0,36,0.00,,,0.00,VWS V14.01,2013-08-22 16:10:00,
2013-08-22 11:15:00,73.9,44.3,30.03,NE,49,5.0,9.0,35,0.00,,,0.00,VWS V14.01,2013-08-22 16:15:00,
2013-08-22 11:20:00,74.1,44.5,30.03,ESE,122,6.0,9.0,35,0.00,,,0.00,VWS V14.01,2013-08-22 16:20:00,
2013-08-22 11:25:00,74.4,47.0,30.03,SE,130,4.0,9.0,38,0.00,,,0.00,VWS V14.01,2013-08-22 16:25:00,
2013-08-22 11:30:00,74.8,45.1,30.03,ESE,115,3.0,9.0,35,0.00,,,0.00,VWS V14.01,2013-08-22 16:30:00,
2013-08-22 11:35:00,75.0,47.5,30.03,East,86,3.0,5.0,38,0.00,,,0.00,VWS V14.01,2013-08-22 16:35:00,
2013-08-22 11:40:00,75.4,46.4,30.03,ENE,68,1.0,8.0,36,0.00,,,0.00,VWS V14.01,2013-08-22 16:40:00,
2013-08-22 11:45:00,75.7,45.1,30.03,SE,125,4.0,8.0,34,0.00,,,0.00,VWS V14.01,2013-08-22 16:45:00,
2013-08-22 11:50:00,75.3,45.6,30.03,East,86,5.0,8.0,35,0.00,,,0.00,VWS V14.01,2013-08-22 16:50:00,
2013-08-22 11:55:00,75.2,44.7,30.02,NNE,17,2.0,8.0,34,0.00,,,0.00,VWS V14.01,2013-08-22 16:55:00,
2013-08-22 12:00:00,75.5,45.0,30.02,SSE,163,2.0,8.0,34,0.00,,,0.00,VWS V14.01,2013-08-22 17:00:00,
2013-08-22 12:05:00,76.0,45.4,30.02,East,100,4.0,8.0,34,0.00,,,0.00,VWS V14.01,2013-08-22 17:05:00,
2013-08-22 12:10:00,76.1,45.5,30.02,SE,140,2.0,8.0,34,0.00,,,0.00,VWS V14.01,2013-08-22 17:10:00,
2013-08-22 12:15:00,75.9,45.3,30.02,East,96,3.0,9.0,34,0.00,,,0.00,VWS V14.01,2013-08-22 17:15:00,
2013-08-22 12:20:00,75.9,44.5,30.01,SSE,156,3.0,9.0,33,0.00,,,0.00,VWS V14.01,2013-08-22 17:20:00,
2013-08-22 12:25:00,76.0,45.4,30.01,ESE,113,3.0,9.0,34,0.00,,,0.00,VWS V14.01,2013-08-22 17:25:00,
2013-08-22 12:30:00,76.1,45.5,30.01,NNE,12,2.0,9.0,34,0.00,,,0.00,VWS V14.01,2013-08-22 17:30:00,
2013-08-22 12:35:00,76.4,47.3,30.01,ENE,78,3.0,7.0,36,0.00,,,0.00,VWS V14.01,2013-08-22 17:35:00,
2013-08-22 12:40:00,76.3,47.9,30.01,NE,42,3.0,10.0,37,0.00,,,0.00,VWS V14.01,2013-08-22 17:40:00,
2013-08-22 12:45:00,76.5,49.5,30.01,NE,41,2.0,10.0,39,0.00,,,0.00,VWS V14.01,2013-08-22 17:45:00,
2013-08-22 12:50:00,76.8,44.5,30.01,South,176,2.0,7.0,32,0.00,,,0.00,VWS V14.01,2013-08-22 17:50:00,
2013-08-22 12:55:00,76.7,46.0,30.00,ENE,68,2.0,9.0,34,0.00,,,0.00,VWS V14.01,2013-08-22 17:55:00,
2013-08-22 13:00:00,77.3,48.1,30.01,ENE,68,2.0,9.0,36,0.00,,,0.00,VWS V14.01,2013-08-22 18:00:00,
2013-08-22 13:05:00,76.9,45.4,30.00,ENE,78,5.0,11.0,33,0.00,,,0.00,VWS V14.01,2013-08-22 18:05:00,
2013-08-22 13:10:00,76.6,44.3,30.00,South,174,5.0,11.0,32,0.00,,,0.00,VWS V14.01,2013-08-22 18:10:00,
2013-08-22 13:15:00,76.5,45.8,30.00,ENE,64,1.0,11.0,34,0.00,,,0.00,VWS V14.01,2013-08-22 18:15:00,
2013-08-22 13:20:00,77.0,46.3,30.00,ESE,107,4.0,7.0,34,0.00,,,0.00,VWS V14.01,2013-08-22 18:20:00,
2013-08-22 13:25:00,77.4,50.3,30.00,SSE,147,7.0,9.0,39,0.00,,,0.00,VWS V14.01,2013-08-22 18:25:00,
2013-08-22 13:30:00,77.2,48.0,30.00,ESE,120,4.0,10.0,36,0.00,,,0.00,VWS V14.01,2013-08-22 18:30:00,
2013-08-22 13:35:00,77.3,44.1,30.00,ESE,122,2.0,9.0,31,0.00,,,0.00,VWS V14.01,2013-08-22 18:35:00,
2013-08-22 13:40:00,77.2,44.8,29.99,ESE,109,0.0,9.0,32,0.00,,,0.00,VWS V14.01,2013-08-22 18:40:00,
2013-08-22 13:45:00,77.7,46.9,29.99,NE,49,2.0,9.0,34,0.00,,,0.00,VWS V14.01,2013-08-22 18:45:00,
2013-08-22 13:50:00,77.8,47.8,29.99,ENE,59,2.0,8.0,35,0.00,,,0.00,VWS V14.01,2013-08-22 18:50:00,
2013-08-22 13:55:00,78.0,49.4,29.99,NNE,20,4.0,8.0,37,0.00,,,0.00,VWS V14.01,2013-08-22 18:55:00,
2013-08-22 14:00:00,77.9,45.5,29.99,NNE,20,2.0,8.0,32,0.00,,,0.00,VWS V14.01,2013-08-22 19:00:00,
2013-08-22 14:05:00,78.0,46.4,29.99,NE,40,2.0,6.0,33,0.00,,,0.00,VWS V14.01,2013-08-22 19:05:00,
2013-08-22 14:10:00,78.3,49.7,29.98,ESE,107,3.0,7.0,37,0.00,,,0.00,VWS V14.01,2013-08-22 19:10:00,
2013-08-22 14:15:00,78.4,45.9,29.98,NE,50,3.0,7.0,32,0.00,,,0.00,VWS V14.01,2013-08-22 19:15:00,
2013-08-22 14:20:00,78.2,46.5,29.98,SE,129,3.0,9.0,33,0.00,,,0.00,VWS V14.01,2013-08-22 19:20:00,
2013-08-22 14:25:00,78.1,46.4,29.98,East,99,9.0,9.0,33,0.00,,,0.00,VWS V14.01,2013-08-22 19:25:00,
2013-08-22 14:30:00,78.1,48.8,29.98,SE,132,3.0,10.0,36,0.00,,,0.00,VWS V14.01,2013-08-22 19:30:00,
2013-08-22 14:35:00,78.1,43.9,29.98,SSE,148,4.0,7.0,30,0.00,,,0.00,VWS V14.01,2013-08-22 19:35:00,
2013-08-22 14:40:00,78.2,48.9,29.98,East,82,6.0,7.0,36,0.00,,,0.00,VWS V14.01,2013-08-22 19:40:00,
2013-08-22 14:45:00,78.2,48.1,29.97,NE,38,5.0,7.0,35,0.00,,,0.00,VWS V14.01,2013-08-22 19:45:00,
2013-08-22 14:50:00,78.3,47.4,29.97,WNW,291,1.0,9.0,34,0.00,,,0.00,VWS V14.01,2013-08-22 19:50:00,
2013-08-22 14:55:00,78.5,50.6,29.97,NE,55,2.0,9.0,38,0.00,,,0.00,VWS V14.01,2013-08-22 19:55:00,
2013-08-22 15:00:00,78.8,49.4,29.97,ENE,68,4.0,9.0,36,0.00,,,0.00,VWS V14.01,2013-08-22 20:00:00,
2013-08-22 15:05:00,79.0,46.4,29.97,ENE,78,2.0,8.0,32,0.00,,,0.00,VWS V14.01,2013-08-22 20:05:00,
2013-08-22 15:10:00,79.2,47.4,29.96,ENE,73,4.0,8.0,33,0.00,,,0.00,VWS V14.01,2013-08-22 20:10:00,
2013-08-22 15:15:00,79.1,45.7,29.96,ESE,114,6.0,10.0,31,0.00,,,0.00,VWS V14.01,2013-08-22 20:15:00,
2013-08-22 15:19:00,78.7,48.5,29.96,ENE,78,3.0,6.0,35,0.00,,,0.00,VWS V14.01,2013-08-22 20:19:00,
2013-08-22 15:24:00,78.8,47.0,29.96,SE,126,7.0,9.0,33,0.00,,,0.00,VWS V14.01,2013-08-22 20:24:00,
2013-08-22 15:30:00,78.8,48.6,29.96,East,86,2.0,11.0,35,0.00,,,0.00,VWS V14.01,2013-08-22 20:30:00,
2013-08-22 15:35:00,79.0,45.6,29.95,NE,48,2.0,7.0,31,0.00,,,0.00,VWS V14.01,2013-08-22 20:35:00,
2013-08-22 15:40:00,79.1,47.3,29.95,ESE,112,2.0,7.0,33,0.00,,,0.00,VWS V14.01,2013-08-22 20:40:00,
2013-08-22 15:44:00,79.5,47.7,29.95,SE,134,4.0,11.0,33,0.00,,,0.00,VWS V14.01,2013-08-22 20:44:00,
2013-08-22 15:45:00,78.2,48.1,29.97,ENE,59,3.0,7.0,35,0.00,,,0.00,VWS V14.01,2013-08-22 20:45:00,
2013-08-22 15:49:00,79.4,47.6,29.95,SE,141,5.0,10.0,33,0.00,,,0.00,VWS V14.01,2013-08-22 20:49:00,
2013-08-22 15:54:00,79.2,48.2,29.95,ESE,105,5.0,10.0,34,0.00,,,0.00,VWS V14.01,2013-08-22 20:54:00,
2013-08-22 15:59:00,79.2,47.4,29.94,East,101,1.0,11.0,33,0.00,,,0.00,VWS V14.01,2013-08-22 20:59:00,
2013-08-22 16:00:00,78.9,49.5,29.97,NNE,23,3.0,9.0,36,0.00,,,0.00,VWS V14.01,2013-08-22 21:00:00,
2013-08-22 16:04:00,79.5,47.7,29.94,ENE,78,3.0,10.0,33,0.00,,,0.00,VWS V14.01,2013-08-22 21:04:00,
2013-08-22 16:09:00,79.5,48.5,29.94,NE,52,3.0,10.0,34,0.00,,,0.00,VWS V14.01,2013-08-22 21:09:00,
2013-08-22 16:14:00,79.4,49.2,29.93,NE,39,4.0,10.0,35,0.00,,,0.00,VWS V14.01,2013-08-22 21:14:00,
2013-08-22 16:15:00,79.0,46.4,29.96,East,96,3.0,10.0,32,0.00,,,0.00,VWS V14.01,2013-08-22 21:15:00,
2013-08-22 16:19:00,79.2,49.0,29.93,ENE,78,3.0,5.0,35,0.00,,,0.00,VWS V14.01,2013-08-22 21:19:00,
2013-08-22 16:24:00,79.2,46.6,29.93,SSE,149,4.0,7.0,32,0.00,,,0.00,VWS V14.01,2013-08-22 21:24:00,
2013-08-22 16:29:00,79.1,48.9,29.92,NE,35,2.0,8.0,35,0.00,,,0.00,VWS V14.01,2013-08-22 21:29:00,
2013-08-22 16:30:00,78.9,48.7,29.96,ENE,63,5.0,11.0,35,0.00,,,0.00,VWS V14.01,2013-08-22 21:30:00,
2013-08-22 16:34:00,79.1,47.3,29.92,ENE,78,4.0,10.0,33,0.00,,,0.00,VWS V14.01,2013-08-22 21:34:00,
2013-08-22 16:39:00,78.8,49.4,29.92,ENE,61,2.0,10.0,36,0.00,,,0.00,VWS V14.01,2013-08-22 21:39:00,
2013-08-22 16:44:00,78.4,49.0,29.92,NE,53,3.0,10.0,36,0.00,,,0.00,VWS V14.01,2013-08-22 21:44:00,
2013-08-22 16:45:00,79.5,47.7,29.95,SE,126,5.0,11.0,33,0.00,,,0.00,VWS V14.01,2013-08-22 21:45:00,
2013-08-22 16:49:00,77.8,50.0,29.92,ESE,105,1.0,6.0,38,0.00,,,0.00,VWS V14.01,2013-08-22 21:49:00,
2013-08-22 16:54:00,77.4,48.9,29.92,ENE,68,3.0,6.0,37,0.00,,,0.00,VWS V14.01,2013-08-22 21:54:00,
2013-08-22 16:59:00,77.1,47.9,29.91,ENE,78,2.0,6.0,36,0.00,,,0.00,VWS V14.01,2013-08-22 21:59:00,
2013-08-22 17:00:00,79.2,47.4,29.94,ENE,68,1.0,11.0,33,0.00,,,0.00,VWS V14.01,2013-08-22 22:00:00,
2013-08-22 17:04:00,77.3,49.5,29.91,ESE,116,2.0,6.0,38,0.00,,,0.00,VWS V14.01,2013-08-22 22:04:00,
2013-08-22 17:09:00,77.9,50.1,29.91,NE,38,2.0,12.0,38,0.00,,,0.00,VWS V14.01,2013-08-22 22:09:00,
2013-08-22 17:14:00,78.5,52.0,29.91,NE,46,2.0,12.0,40,0.00,,,0.00,VWS V14.01,2013-08-22 22:14:00,
2013-08-22 17:15:00,79.4,49.2,29.93,NNE,33,1.0,10.0,35,0.00,,,0.00,VWS V14.01,2013-08-22 22:15:00,
2013-08-22 17:19:00,78.7,50.8,29.91,SE,126,6.0,7.0,38,0.00,,,0.00,VWS V14.01,2013-08-22 22:19:00,
2013-08-22 17:24:00,78.8,50.1,29.91,East,93,3.0,8.0,37,0.00,,,0.00,VWS V14.01,2013-08-22 22:24:00,
2013-08-22 17:29:00,79.4,49.2,29.90,SE,133,8.0,9.0,35,0.00,,,0.00,VWS V14.01,2013-08-22 22:29:00,
2013-08-22 17:30:00,79.1,48.9,29.92,NE,51,6.0,8.0,35,0.00,,,0.00,VWS V14.01,2013-08-22 22:30:00,
2013-08-22 17:34:00,79.7,53.1,29.91,ENE,78,2.0,6.0,40,0.00,,,0.00,VWS V14.01,2013-08-22 22:34:00,
2013-08-22 17:39:00,79.4,52.8,29.90,NNE,24,2.0,8.0,40,0.00,,,0.00,VWS V14.01,2013-08-22 22:39:00,
2013-08-22 17:44:00,79.0,49.6,29.90,ESE,115,2.0,8.0,36,0.00,,,0.00,VWS V14.01,2013-08-22 22:44:00,
2013-08-22 17:45:00,78.3,49.7,29.92,East,99,6.0,10.0,37,0.00,,,0.00,VWS V14.01,2013-08-22 22:45:00,
2013-08-22 17:49:00,79.0,50.3,29.90,NNE,21,6.0,7.0,37,0.00,,,0.00,VWS V14.01,2013-08-22 22:49:00,
2013-08-22 17:54:00,78.8,49.4,29.90,ENE,68,4.0,10.0,36,0.00,,,0.00,VWS V14.01,2013-08-22 22:54:00,
2013-08-22 17:59:00,78.7,52.2,29.89,NE,37,3.0,10.0,40,0.00,,,0.00,VWS V14.01,2013-08-22 22:59:00,
2013-08-22 18:00:00,77.1,47.9,29.91,SE,126,4.0,6.0,36,0.00,,,0.00,VWS V14.01,2013-08-22 23:00:00,
2013-08-22 18:04:00,78.6,50.0,29.89,ESE,113,3.0,8.0,37,0.00,,,0.00,VWS V14.01,2013-08-22 23:04:00,
2013-08-22 18:09:00,78.4,49.8,29.89,ENE,64,4.0,9.0,37,0.00,,,0.00,VWS V14.01,2013-08-22 23:09:00,
2013-08-22 18:14:00,78.3,49.7,29.89,ENE,68,2.0,9.0,37,0.00,,,0.00,VWS V14.01,2013-08-22 23:14:00,
2013-08-22 18:15:00,78.6,52.1,29.91,ENE,73,3.0,12.0,40,0.00,,,0.00,VWS V14.01,2013-08-22 23:15:00,
2013-08-22 18:19:00,78.4,51.2,29.89,NNE,32,3.0,7.0,39,0.00,,,0.00,VWS V14.01,2013-08-22 23:19:00,
2013-08-22 18:24:00,78.5,51.3,29.89,NNE,24,4.0,7.0,39,0.00,,,0.00,VWS V14.01,2013-08-22 23:24:00,
2013-08-22 18:29:00,78.4,50.5,29.89,NE,51,3.0,7.0,38,0.00,,,0.00,VWS V14.01,2013-08-22 23:29:00,
2013-08-22 18:30:00,79.5,49.2,29.90,SE,142,3.0,9.0,35,0.00,,,0.00,VWS V14.01,2013-08-22 23:30:00,
2013-08-22 18:34:00,78.2,50.3,29.89,East,92,5.0,8.0,38,0.00,,,0.00,VWS V14.01,2013-08-22 23:34:00,
2013-08-22 18:39:00,78.2,50.3,29.88,ESE,105,3.0,8.0,38,0.00,,,0.00,VWS V14.01,2013-08-22 23:39:00,
2013-08-22 18:44:00,78.3,50.4,29.88,East,95,2.0,8.0,38,0.00,,,0.00,VWS V14.01,2013-08-22 23:44:00,
2013-08-22 18:45:00,79.0,49.6,29.90,ENE,73,2.0,8.0,36,0.00,,,0.00,VWS V14.01,2013-08-22 23:45:00,
2013-08-22 18:49:00,78.3,49.7,29.88,ESE,103,2.0,8.0,37,0.00,,,0.00,VWS V14.01,2013-08-22 23:49:00,
2013-08-22 18:54:00,78.4,51.2,29.88,NE,49,2.0,8.0,39,0.00,,,0.00,VWS V14.01,2013-08-22 23:54:00,
2013-08-22 18:59:00,78.3,51.1,29.88,East,95,4.0,8.0,39,0.00,,,0.00,VWS V14.01,2013-08-22 23:59:00,
2013-08-22 19:00:00,78.7,52.8,29.89,ESE,103,3.0,10.0,41,0.00,,,0.00,VWS V14.01,2013-08-23 00:00:00,
2013-08-22 19:04:00,78.2,50.3,29.88,East,96,2.0,7.0,38,0.00,,,0.00,VWS V14.01,2013-08-23 00:04:00,
2013-08-22 19:09:00,78.0,50.2,29.88,SSE,156,3.0,7.0,38,0.00,,,0.00,VWS V14.01,2013-08-23 00:09:00,
2013-08-22 19:14:00,77.7,49.9,29.87,ENE,68,2.0,11.0,38,0.00,,,0.00,VWS V14.01,2013-08-23 00:14:00,
2013-08-22 19:15:00,78.3,49.7,29.89,ESE,113,5.0,9.0,37,0.00,,,0.00,VWS V14.01,2013-08-23 00:15:00,
2013-08-22 19:19:00,77.5,50.4,29.87,ENE,63,3.0,9.0,39,0.00,,,0.00,VWS V14.01,2013-08-23 00:19:00,
2013-08-22 19:24:00,77.3,50.9,29.87,NE,49,2.0,9.0,40,0.00,,,0.00,VWS V14.01,2013-08-23 00:24:00,
2013-08-22 19:29:00,76.9,51.2,29.87,ENE,60,2.0,9.0,41,0.00,,,0.00,VWS V14.01,2013-08-23 00:29:00,
2013-08-22 19:30:00,78.3,50.4,29.89,NE,55,4.0,8.0,38,0.00,,,0.00,VWS V14.01,2013-08-23 00:30:00,
2013-08-22 19:34:00,76.5,50.9,29.87,ENE,68,4.0,6.0,41,0.00,,,0.00,VWS V14.01,2013-08-23 00:34:00,
2013-08-22 19:39:00,76.2,50.6,29.87,ENE,64,2.0,6.0,41,0.00,,,0.00,VWS V14.01,2013-08-23 00:39:00,
2013-08-22 19:44:00,76.0,51.1,29.87,East,100,4.0,6.0,42,0.00,,,0.00,VWS V14.01,2013-08-23 00:44:00,
2013-08-22 19:45:00,78.3,49.7,29.88,North,4,2.0,8.0,37,0.00,,,0.00,VWS V14.01,2013-08-23 00:45:00,
2013-08-22 19:49:00,75.7,51.5,29.87,NE,55,3.0,6.0,43,0.00,,,0.00,VWS V14.01,2013-08-23 00:49:00,
2013-08-22 19:54:00,75.4,51.2,29.86,NE,51,2.0,8.0,43,0.00,,,0.00,VWS V14.01,2013-08-23 00:54:00,
2013-08-22 19:59:00,75.2,51.0,29.87,ENE,64,2.0,8.0,43,0.00,,,0.00,VWS V14.01,2013-08-23 00:59:00,
2013-08-22 20:00:00,78.3,50.4,29.88,ESE,107,2.0,8.0,38,0.00,,,0.00,VWS V14.01,2013-08-23 01:00:00,
2013-08-22 20:04:00,74.8,50.6,29.86,ENE,78,4.0,8.0,43,0.00,,,0.00,VWS V14.01,2013-08-23 01:04:00,
2013-08-22 20:09:00,74.6,50.5,29.86,NE,37,2.0,8.0,43,0.00,,,0.00,VWS V14.01,2013-08-23 01:09:00,
2013-08-22 20:14:00,74.3,50.8,29.86,East,88,2.0,8.0,44,0.00,,,0.00,VWS V14.01,2013-08-23 01:14:00,
2013-08-22 20:15:00,77.6,49.8,29.87,ENE,78,7.0,11.0,38,0.00,,,0.00,VWS V14.01,2013-08-23 01:15:00,
2013-08-22 20:19:00,74.0,51.2,29.86,ENE,59,2.0,5.0,45,0.00,,,0.00,VWS V14.01,2013-08-23 01:19:00,
2013-08-22 20:24:00,73.6,50.8,29.86,NE,42,4.0,10.0,45,0.00,,,0.00,VWS V14.01,2013-08-23 01:24:00,
2013-08-22 20:29:00,73.3,50.5,29.86,NE,52,5.0,10.0,45,0.00,,,0.00,VWS V14.01,2013-08-23 01:29:00,
2013-08-22 20:30:00,76.8,51.2,29.87,ENE,59,2.0,9.0,41,0.00,,,0.00,VWS V14.01,2013-08-23 01:30:00,
2013-08-22 20:34:00,73.0,50.8,29.86,East,83,3.0,8.0,46,0.00,,,0.00,VWS V14.01,2013-08-23 01:34:00,
2013-08-22 20:39:00,72.7,50.6,29.86,East,83,2.0,8.0,46,0.00,,,0.00,VWS V14.01,2013-08-23 01:39:00,
2013-08-22 20:44:00,72.2,50.7,29.86,ENE,68,3.0,8.0,47,0.00,,,0.00,VWS V14.01,2013-08-23 01:44:00,
2013-08-22 20:45:00,75.9,51.0,29.87,NE,46,2.0,6.0,42,0.00,,,0.00,VWS V14.01,2013-08-23 01:45:00,
2013-08-22 20:49:00,71.8,50.3,29.86,ENE,57,4.0,6.0,47,0.00,,,0.00,VWS V14.01,2013-08-23 01:49:00,
2013-08-22 20:54:00,71.5,50.6,29.86,ENE,57,3.0,7.0,48,0.00,,,0.00,VWS V14.01,2013-08-23 01:54:00,
2013-08-22 20:59:00,71.1,50.8,29.86,NE,50,2.0,7.0,49,0.00,,,0.00,VWS V14.01,2013-08-23 01:59:00,
2013-08-22 21:00:00,75.1,50.9,29.86,NE,40,1.0,8.0,43,0.00,,,0.00,VWS V14.01,2013-08-23 02:00:00,
2013-08-22 21:04:00,70.8,51.1,29.86,ENE,63,1.0,4.0,50,0.00,,,0.00,VWS V14.01,2013-08-23 02:04:00,
2013-08-22 21:09:00,70.5,50.8,29.86,ENE,78,3.0,7.0,50,0.00,,,0.00,VWS V14.01,2013-08-23 02:09:00,
2013-08-22 21:14:00,70.2,51.1,29.87,ENE,68,3.0,7.0,51,0.00,,,0.00,VWS V14.01,2013-08-23 02:14:00,
2013-08-22 21:15:00,74.3,50.8,29.86,ENE,68,1.0,8.0,44,0.00,,,0.00,VWS V14.01,2013-08-23 02:15:00,
2013-08-22 21:19:00,70.1,51.0,29.87,ESE,106,4.0,10.0,51,0.00,,,0.00,VWS V14.01,2013-08-23 02:19:00,
2013-08-22 21:24:00,69.9,50.8,29.87,East,82,2.0,10.0,51,0.00,,,0.00,VWS V14.01,2013-08-23 02:24:00,
2013-08-22 21:29:00,69.7,51.2,29.87,East,93,2.0,10.0,52,0.00,,,0.00,VWS V14.01,2013-08-23 02:29:00,
2013-08-22 21:30:00,73.3,50.5,29.86,NNE,30,2.0,10.0,45,0.00,,,0.00,VWS V14.01,2013-08-23 02:30:00,
2013-08-22 21:34:00,69.5,51.0,29.86,East,86,3.0,5.0,52,0.00,,,0.00,VWS V14.01,2013-08-23 02:34:00,
2013-08-22 21:39:00,69.3,51.3,29.86,ESE,105,6.0,7.0,53,0.00,,,0.00,VWS V14.01,2013-08-23 02:39:00,
2013-08-22 21:44:00,69.2,51.2,29.86,ENE,62,5.0,9.0,53,0.00,,,0.00,VWS V14.01,2013-08-23 02:44:00,
2013-08-22 21:45:00,72.2,50.7,29.86,East,89,3.0,8.0,47,0.00,,,0.00,VWS V14.01,2013-08-23 02:45:00,
2013-08-22 21:49:00,69.1,51.1,29.86,ENE,73,3.0,9.0,53,0.00,,,0.00,VWS V14.01,2013-08-23 02:49:00,
2013-08-22 21:54:00,69.0,51.0,29.86,East,93,2.0,9.0,53,0.00,,,0.00,VWS V14.01,2013-08-23 02:54:00,
2013-08-22 21:59:00,68.9,50.9,29.86,ENE,68,6.0,9.0,53,0.00,,,0.00,VWS V14.01,2013-08-23 02:59:00,
2013-08-22 22:00:00,71.1,50.8,29.86,ENE,68,2.0,7.0,49,0.00,,,0.00,VWS V14.01,2013-08-23 03:00:00,
2013-08-22 22:04:00,68.8,50.8,29.86,ESE,117,5.0,8.0,53,0.00,,,0.00,VWS V14.01,2013-08-23 03:04:00,
2013-08-22 22:09:00,68.6,50.7,29.86,East,88,5.0,8.0,53,0.00,,,0.00,VWS V14.01,2013-08-23 03:09:00,
2013-08-22 22:14:00,68.3,50.9,29.86,SE,126,2.0,8.0,54,0.00,,,0.00,VWS V14.01,2013-08-23 03:14:00,
2013-08-22 22:15:00,70.2,51.1,29.86,ESE,107,7.0,7.0,51,0.00,,,0.00,VWS V14.01,2013-08-23 03:15:00,
2013-08-22 22:19:00,68.0,51.1,29.86,NNE,32,4.0,8.0,55,0.00,,,0.00,VWS V14.01,2013-08-23 03:19:00,
2013-08-22 22:24:00,67.7,50.8,29.86,ESE,103,4.0,10.0,55,0.00,,,0.00,VWS V14.01,2013-08-23 03:24:00,
2013-08-22 22:29:00,67.6,51.2,29.86,ESE,123,4.0,10.0,56,0.00,,,0.00,VWS V14.01,2013-08-23 03:29:00,
2013-08-22 22:30:00,69.6,51.1,29.87,ESE,111,4.0,10.0,52,0.00,,,0.00,VWS V14.01,2013-08-23 03:30:00,
2013-08-22 22:34:00,67.5,51.1,29.86,East,91,5.0,8.0,56,0.00,,,0.00,VWS V14.01,2013-08-23 03:34:00,
2013-08-22 22:39:00,67.3,51.4,29.86,East,85,8.0,10.0,57,0.00,,,0.00,VWS V14.01,2013-08-23 03:39:00,
2013-08-22 22:44:00,67.2,51.3,29.86,SE,129,6.0,12.0,57,0.00,,,0.00,VWS V14.01,2013-08-23 03:44:00,
2013-08-22 22:45:00,69.2,51.2,29.86,NE,41,6.0,9.0,53,0.00,,,0.00,VWS V14.01,2013-08-23 03:45:00,
2013-08-22 22:49:00,67.0,51.6,29.86,ENE,78,5.0,10.0,58,0.00,,,0.00,VWS V14.01,2013-08-23 03:49:00,
2013-08-22 22:54:00,66.9,51.5,29.86,ESE,112,3.0,10.0,58,0.00,,,0.00,VWS V14.01,2013-08-23 03:54:00,
2013-08-22 22:59:00,66.7,51.8,29.86,SE,133,9.0,10.0,59,0.00,,,0.00,VWS V14.01,2013-08-23 03:59:00,
2013-08-22 23:00:00,68.9,50.9,29.86,ESE,113,6.0,9.0,53,0.00,,,0.00,VWS V14.01,2013-08-23 04:00:00,
2013-08-22 23:01:00,66.7,51.8,29.86,East,82,6.0,8.0,59,0.00,,,0.00,VWS V14.01,2013-08-23 04:01:00,
2013-08-22 23:06:00,66.5,51.6,29.86,East,101,7.0,11.0,59,0.00,,,0.00,VWS V14.01,2013-08-23 04:06:00,
2013-08-22 23:11:00,66.4,51.5,29.86,SSE,153,7.0,11.0,59,0.00,,,0.00,VWS V14.01,2013-08-23 04:11:00,
2013-08-22 23:15:00,68.3,50.9,29.87,East,87,3.0,8.0,54,0.00,,,0.00,VWS V14.01,2013-08-23 04:15:00,
2013-08-22 23:16:00,66.3,51.4,29.86,SSE,159,7.0,9.0,59,0.00,,,0.00,VWS V14.01,2013-08-23 04:16:00,
2013-08-22 23:21:00,66.1,51.2,29.86,ESE,114,5.0,12.0,59,0.00,,,0.00,VWS V14.01,2013-08-23 04:21:00,
2013-08-22 23:26:00,65.9,51.5,29.86,SE,128,8.0,12.0,60,0.00,,,0.00,VWS V14.01,2013-08-23 04:26:00,
2013-08-22 23:30:00,67.6,51.2,29.86,ESE,118,3.0,10.0,56,0.00,,,0.00,VWS V14.01,2013-08-23 04:30:00,
2013-08-22 23:31:00,65.8,51.4,29.86,ESE,102,9.0,9.0,60,0.00,,,0.00,VWS V14.01,2013-08-23 04:31:00,
2013-08-22 23:36:00,65.8,51.4,29.86,ENE,78,5.0,11.0,60,0.00,,,0.00,VWS V14.01,2013-08-23 04:36:00,
2013-08-22 23:41:00,65.8,51.4,29.86,ESE,118,5.0,11.0,60,0.00,,,0.00,VWS V14.01,2013-08-23 04:41:00,
2013-08-22 23:45:00,67.1,51.2,29.86,ESE,106,7.0,12.0,57,0.00,,,0.00,VWS V14.01,2013-08-23 04:45:00,
2013-08-22 23:46:00,65.6,51.2,29.86,SE,134,7.0,7.0,60,0.00,,,0.00,VWS V14.01,2013-08-23 04:46:00,
2013-08-22 23:51:00,65.4,51.0,29.85,SE,138,8.0,11.0,60,0.00,,,0.00,VWS V14.01,2013-08-23 04:51:00,
2013-08-22 23:56:00,65.3,50.9,29.86,SE,143,4.0,11.0,60,0.00,,,0.00,VWS V14.01,2013-08-23 04:56:00,